sensor_id;sensor_type;location;lat;lon;timestamp;temperature;humidity
6098;DHT22;3077;50.922;6.584;2023-12-22T00:01:54;5.60;99.90
6098;DHT22;3077;50.922;6.584;2023-12-22T00:04:19;4.80;99.90
6098;DHT22;3077;50.922;6.584;2023-12-22T00:06:45;4.70;99.90
6098;DHT22;3077;50.922;6.584;2023-12-22T00:09:13;5.50;99.90
6098;DHT22;3077;50.922;6.584;2023-12-22T00:11:39;4.70;99.90
6098;DHT22;3077;50.922;6.584;2023-12-22T00:14:04;4.70;99.90
6098;DHT22;3077;50.922;6.584;2023-12-22T00:16:30;4.80;99.90
6098;DHT22;3077;50.922;6.584;2023-12-22T00:18:55;4.80;99.90
6098;DHT22;3077;50.922;6.584;2023-12-22T00:21:21;4.80;99.90
6098;DHT22;3077;50.922;6.584;2023-12-22T00:23:47;4.90;99.90
6098;DHT22;3077;50.922;6.584;2023-12-22T00:26:12;4.90;99.90
6098;DHT22;3077;50.922;6.584;2023-12-22T00:28:38;4.90;99.90
6098;DHT22;3077;50.922;6.584;2023-12-22T00:31:04;4.90;99.90
6098;DHT22;3077;50.922;6.584;2023-12-22T00:33:29;5.00;99.90
6098;DHT22;3077;50.922;6.584;2023-12-22T00:35:55;5.00;99.90
6098;DHT22;3077;50.922;6.584;2023-12-22T00:40:46;5.10;99.90
6098;DHT22;3077;50.922;6.584;2023-12-22T00:43:12;5.10;99.90
6098;DHT22;3077;50.922;6.584;2023-12-22T00:45:37;5.10;99.90
6098;DHT22;3077;50.922;6.584;2023-12-22T00:48:03;5.10;99.90
6098;DHT22;3077;50.922;6.584;2023-12-22T00:50:29;5.20;99.90
6098;DHT22;3077;50.922;6.584;2023-12-22T00:52:54;5.20;99.90
6098;DHT22;3077;50.922;6.584;2023-12-22T00:55:20;5.30;99.90
6098;DHT22;3077;50.922;6.584;2023-12-22T00:57:45;5.30;99.90
6098;DHT22;3077;50.922;6.584;2023-12-22T01:00:11;5.30;99.90
6098;DHT22;3077;50.922;6.584;2023-12-22T01:02:38;5.30;99.90
6098;DHT22;3077;50.922;6.584;2023-12-22T01:05:04;5.30;99.90
6098;DHT22;3077;50.922;6.584;2023-12-22T01:07:30;5.30;99.90
6098;DHT22;3077;50.922;6.584;2023-12-22T01:09:56;5.30;99.90
6098;DHT22;3077;50.922;6.584;2023-12-22T01:12:21;5.40;99.90
6098;DHT22;3077;50.922;6.584;2023-12-22T01:14:47;5.40;99.90
6098;DHT22;3077;50.922;6.584;2023-12-22T01:17:14;5.30;99.90
6098;DHT22;3077;50.922;6.584;2023-12-22T01:19:40;5.30;99.90
6098;DHT22;3077;50.922;6.584;2023-12-22T01:22:05;5.40;99.90
6098;DHT22;3077;50.922;6.584;2023-12-22T01:24:31;5.50;99.90
6098;DHT22;3077;50.922;6.584;2023-12-22T01:26:56;5.60;99.90
6098;DHT22;3077;50.922;6.584;2023-12-22T01:29:22;5.50;99.90
6098;DHT22;3077;50.922;6.584;2023-12-22T01:31:47;5.60;99.90
6098;DHT22;3077;50.922;6.584;2023-12-22T01:34:13;5.60;99.90
6098;DHT22;3077;50.922;6.584;2023-12-22T01:36:39;5.60;99.90
6098;DHT22;3077;50.922;6.584;2023-12-22T01:39:04;5.70;99.90
6098;DHT22;3077;50.922;6.584;2023-12-22T01:41:30;5.80;99.90
6098;DHT22;3077;50.922;6.584;2023-12-22T01:43:55;5.80;99.90
6098;DHT22;3077;50.922;6.584;2023-12-22T01:46:21;5.90;99.90
6098;DHT22;3077;50.922;6.584;2023-12-22T01:48:46;6.00;99.90
6098;DHT22;3077;50.922;6.584;2023-12-22T01:51:12;6.10;99.90
6098;DHT22;3077;50.922;6.584;2023-12-22T01:53:38;6.10;99.90
6098;DHT22;3077;50.922;6.584;2023-12-22T01:56:04;6.10;99.90
6098;DHT22;3077;50.922;6.584;2023-12-22T01:58:30;6.20;99.90
6098;DHT22;3077;50.922;6.584;2023-12-22T02:00:58;6.10;99.90
6098;DHT22;3077;50.922;6.584;2023-12-22T02:03:23;6.40;99.90
6098;DHT22;3077;50.922;6.584;2023-12-22T02:05:49;6.10;99.90
6098;DHT22;3077;50.922;6.584;2023-12-22T02:08:17;6.10;99.90
6098;DHT22;3077;50.922;6.584;2023-12-22T02:10:43;6.20;99.90
6098;DHT22;3077;50.922;6.584;2023-12-22T02:13:10;6.30;99.90
6098;DHT22;3077;50.922;6.584;2023-12-22T02:15:36;6.30;99.90
6098;DHT22;3077;50.922;6.584;2023-12-22T02:18:12;6.30;99.90
6098;DHT22;3077;50.922;6.584;2023-12-22T02:20:40;6.30;99.90
6098;DHT22;3077;50.922;6.584;2023-12-22T02:23:06;6.30;99.90
6098;DHT22;3077;50.922;6.584;2023-12-22T02:25:31;6.50;99.90
6098;DHT22;3077;50.922;6.584;2023-12-22T02:28:04;6.50;99.90
6098;DHT22;3077;50.922;6.584;2023-12-22T02:30:43;6.60;99.90
6098;DHT22;3077;50.922;6.584;2023-12-22T02:33:15;6.70;99.90
6098;DHT22;3077;50.922;6.584;2023-12-22T02:35:41;6.90;99.90
6098;DHT22;3077;50.922;6.584;2023-12-22T02:38:08;7.00;99.90
6098;DHT22;3077;50.922;6.584;2023-12-22T02:40:34;7.00;99.90
6098;DHT22;3077;50.922;6.584;2023-12-22T02:43:01;7.00;99.90
6098;DHT22;3077;50.922;6.584;2023-12-22T02:45:27;7.00;99.90
6098;DHT22;3077;50.922;6.584;2023-12-22T02:47:54;7.00;99.90
6098;DHT22;3077;50.922;6.584;2023-12-22T02:50:20;7.00;99.90
6098;DHT22;3077;50.922;6.584;2023-12-22T02:52:45;7.00;99.90
6098;DHT22;3077;50.922;6.584;2023-12-22T02:55:11;7.00;99.90
6098;DHT22;3077;50.922;6.584;2023-12-22T02:57:36;7.10;99.90
6098;DHT22;3077;50.922;6.584;2023-12-22T03:00:02;7.60;99.90
6098;DHT22;3077;50.922;6.584;2023-12-22T03:02:28;7.20;99.90
6098;DHT22;3077;50.922;6.584;2023-12-22T03:04:54;7.20;99.90
6098;DHT22;3077;50.922;6.584;2023-12-22T03:07:19;7.30;99.90
6098;DHT22;3077;50.922;6.584;2023-12-22T03:09:45;7.10;99.90
6098;DHT22;3077;50.922;6.584;2023-12-22T03:12:11;7.30;99.90
6098;DHT22;3077;50.922;6.584;2023-12-22T03:14:36;7.50;99.90
6098;DHT22;3077;50.922;6.584;2023-12-22T03:17:04;7.40;99.90
6098;DHT22;3077;50.922;6.584;2023-12-22T03:19:30;7.40;99.90
6098;DHT22;3077;50.922;6.584;2023-12-22T03:21:56;7.50;99.90
6098;DHT22;3077;50.922;6.584;2023-12-22T03:24:25;7.50;99.90
6098;DHT22;3077;50.922;6.584;2023-12-22T03:26:52;7.60;99.90
6098;DHT22;3077;50.922;6.584;2023-12-22T03:29:18;7.60;99.90
6098;DHT22;3077;50.922;6.584;2023-12-22T03:31:44;8.30;99.90
6098;DHT22;3077;50.922;6.584;2023-12-22T03:34:10;7.60;99.90
6098;DHT22;3077;50.922;6.584;2023-12-22T03:36:36;7.60;99.90
6098;DHT22;3077;50.922;6.584;2023-12-22T03:39:02;7.90;99.90
6098;DHT22;3077;50.922;6.584;2023-12-22T03:41:28;7.60;99.90
6098;DHT22;3077;50.922;6.584;2023-12-22T03:43:55;7.30;99.90
6098;DHT22;3077;50.922;6.584;2023-12-22T03:46:20;7.10;99.90
6098;DHT22;3077;50.922;6.584;2023-12-22T03:48:46;6.90;99.90
6098;DHT22;3077;50.922;6.584;2023-12-22T03:51:12;6.80;99.90
6098;DHT22;3077;50.922;6.584;2023-12-22T03:53:38;6.80;99.90
6098;DHT22;3077;50.922;6.584;2023-12-22T03:56:04;6.60;99.90
6098;DHT22;3077;50.922;6.584;2023-12-22T03:58:30;6.60;99.90
6098;DHT22;3077;50.922;6.584;2023-12-22T04:00:56;6.30;99.90
6098;DHT22;3077;50.922;6.584;2023-12-22T04:03:22;6.40;99.90
6098;DHT22;3077;50.922;6.584;2023-12-22T04:05:47;6.40;99.90
6098;DHT22;3077;50.922;6.584;2023-12-22T04:08:13;6.40;99.90
6098;DHT22;3077;50.922;6.584;2023-12-22T04:10:38;6.40;99.90
6098;DHT22;3077;50.922;6.584;2023-12-22T04:13:04;6.40;99.90
6098;DHT22;3077;50.922;6.584;2023-12-22T04:15:30;6.20;99.90
6098;DHT22;3077;50.922;6.584;2023-12-22T04:17:55;6.40;99.90
6098;DHT22;3077;50.922;6.584;2023-12-22T04:20:21;6.50;99.90
6098;DHT22;3077;50.922;6.584;2023-12-22T04:22:46;6.40;99.90
6098;DHT22;3077;50.922;6.584;2023-12-22T04:25:12;6.50;99.90
6098;DHT22;3077;50.922;6.584;2023-12-22T04:27:37;6.60;99.90
6098;DHT22;3077;50.922;6.584;2023-12-22T04:30:03;6.60;99.90
6098;DHT22;3077;50.922;6.584;2023-12-22T04:32:29;6.80;99.90
6098;DHT22;3077;50.922;6.584;2023-12-22T04:34:54;6.80;99.90
6098;DHT22;3077;50.922;6.584;2023-12-22T04:37:20;7.00;99.90
6098;DHT22;3077;50.922;6.584;2023-12-22T04:39:46;7.20;99.90
6098;DHT22;3077;50.922;6.584;2023-12-22T04:42:11;7.20;99.90
6098;DHT22;3077;50.922;6.584;2023-12-22T04:44:37;7.30;99.90
6098;DHT22;3077;50.922;6.584;2023-12-22T04:47:03;7.20;99.90
6098;DHT22;3077;50.922;6.584;2023-12-22T04:49:28;7.40;99.90
6098;DHT22;3077;50.922;6.584;2023-12-22T04:51:54;7.40;99.90
6098;DHT22;3077;50.922;6.584;2023-12-22T04:54:19;7.40;99.90
6098;DHT22;3077;50.922;6.584;2023-12-22T04:56:45;7.40;99.90
6098;DHT22;3077;50.922;6.584;2023-12-22T04:59:10;7.60;99.90
6098;DHT22;3077;50.922;6.584;2023-12-22T05:01:36;7.70;99.90
6098;DHT22;3077;50.922;6.584;2023-12-22T05:04:02;7.70;99.90
6098;DHT22;3077;50.922;6.584;2023-12-22T05:06:28;7.80;99.90
6098;DHT22;3077;50.922;6.584;2023-12-22T05:08:55;7.90;99.90
6098;DHT22;3077;50.922;6.584;2023-12-22T05:11:21;7.80;99.90
6098;DHT22;3077;50.922;6.584;2023-12-22T05:13:47;7.90;99.90
6098;DHT22;3077;50.922;6.584;2023-12-22T05:16:13;8.30;99.90
6098;DHT22;3077;50.922;6.584;2023-12-22T05:18:39;8.00;99.90
6098;DHT22;3077;50.922;6.584;2023-12-22T05:21:04;8.00;99.90
6098;DHT22;3077;50.922;6.584;2023-12-22T05:23:30;7.90;99.90
6098;DHT22;3077;50.922;6.584;2023-12-22T05:25:55;8.10;99.90
6098;DHT22;3077;50.922;6.584;2023-12-22T05:28:21;8.10;99.90
6098;DHT22;3077;50.922;6.584;2023-12-22T05:30:47;8.20;99.90
6098;DHT22;3077;50.922;6.584;2023-12-22T05:33:12;9.00;99.90
6098;DHT22;3077;50.922;6.584;2023-12-22T05:35:38;8.30;99.90
6098;DHT22;3077;50.922;6.584;2023-12-22T05:38:03;8.30;99.90
6098;DHT22;3077;50.922;6.584;2023-12-22T05:40:31;8.30;99.90
6098;DHT22;3077;50.922;6.584;2023-12-22T05:42:56;8.60;99.90
6098;DHT22;3077;50.922;6.584;2023-12-22T05:45:22;8.40;99.90
6098;DHT22;3077;50.922;6.584;2023-12-22T05:47:50;8.30;99.90
6098;DHT22;3077;50.922;6.584;2023-12-22T05:50:15;8.20;99.90
6098;DHT22;3077;50.922;6.584;2023-12-22T05:52:42;8.20;99.90
6098;DHT22;3077;50.922;6.584;2023-12-22T05:55:09;8.50;99.90
6098;DHT22;3077;50.922;6.584;2023-12-22T05:57:34;8.30;99.90
6098;DHT22;3077;50.922;6.584;2023-12-22T06:00:00;8.40;99.90
6098;DHT22;3077;50.922;6.584;2023-12-22T06:02:26;8.50;99.90
6098;DHT22;3077;50.922;6.584;2023-12-22T06:04:51;8.40;99.90
6098;DHT22;3077;50.922;6.584;2023-12-22T06:07:17;8.40;99.90
6098;DHT22;3077;50.922;6.584;2023-12-22T06:09:44;8.10;99.90
6098;DHT22;3077;50.922;6.584;2023-12-22T06:12:10;8.50;99.90
6098;DHT22;3077;50.922;6.584;2023-12-22T06:14:36;8.40;99.90
6098;DHT22;3077;50.922;6.584;2023-12-22T06:17:01;8.50;99.90
6098;DHT22;3077;50.922;6.584;2023-12-22T06:19:27;8.30;99.90
6098;DHT22;3077;50.922;6.584;2023-12-22T06:21:54;8.20;99.90
6098;DHT22;3077;50.922;6.584;2023-12-22T06:24:19;8.20;99.90
6098;DHT22;3077;50.922;6.584;2023-12-22T06:26:45;8.20;99.90
6098;DHT22;3077;50.922;6.584;2023-12-22T06:29:10;8.10;99.90
6098;DHT22;3077;50.922;6.584;2023-12-22T06:31:36;8.10;99.90
6098;DHT22;3077;50.922;6.584;2023-12-22T06:34:02;8.20;99.90
6098;DHT22;3077;50.922;6.584;2023-12-22T06:36:28;8.00;99.90
6098;DHT22;3077;50.922;6.584;2023-12-22T06:38:55;8.10;99.90
6098;DHT22;3077;50.922;6.584;2023-12-22T06:41:25;7.70;99.90
6098;DHT22;3077;50.922;6.584;2023-12-22T06:43:51;7.60;99.90
6098;DHT22;3077;50.922;6.584;2023-12-22T06:46:18;7.50;99.90
6098;DHT22;3077;50.922;6.584;2023-12-22T06:48:44;7.20;99.90
6098;DHT22;3077;50.922;6.584;2023-12-22T06:51:27;7.40;99.90
6098;DHT22;3077;50.922;6.584;2023-12-22T06:53:54;7.40;99.90
6098;DHT22;3077;50.922;6.584;2023-12-22T06:56:23;7.30;99.90
6098;DHT22;3077;50.922;6.584;2023-12-22T06:58:50;7.10;99.90
6098;DHT22;3077;50.922;6.584;2023-12-22T07:01:30;7.40;99.90
6098;DHT22;3077;50.922;6.584;2023-12-22T07:03:56;7.50;99.90
6098;DHT22;3077;50.922;6.584;2023-12-22T07:06:24;7.70;99.90
6098;DHT22;3077;50.922;6.584;2023-12-22T07:11:49;7.60;99.90
6098;DHT22;3077;50.922;6.584;2023-12-22T07:14:16;7.70;99.90
6098;DHT22;3077;50.922;6.584;2023-12-22T07:16:42;7.70;99.90
6098;DHT22;3077;50.922;6.584;2023-12-22T07:19:08;7.70;99.90
6098;DHT22;3077;50.922;6.584;2023-12-22T07:21:34;7.50;99.90
6098;DHT22;3077;50.922;6.584;2023-12-22T07:24:00;7.60;99.90
6098;DHT22;3077;50.922;6.584;2023-12-22T07:26:26;7.70;99.90
6098;DHT22;3077;50.922;6.584;2023-12-22T07:28:52;8.00;99.90
6098;DHT22;3077;50.922;6.584;2023-12-22T07:31:18;7.80;99.90
6098;DHT22;3077;50.922;6.584;2023-12-22T07:33:43;8.10;99.90
6098;DHT22;3077;50.922;6.584;2023-12-22T07:36:09;7.90;99.90
6098;DHT22;3077;50.922;6.584;2023-12-22T07:38:36;8.00;99.90
6098;DHT22;3077;50.922;6.584;2023-12-22T07:41:01;7.80;99.90
6098;DHT22;3077;50.922;6.584;2023-12-22T07:43:27;7.80;99.90
6098;DHT22;3077;50.922;6.584;2023-12-22T07:45:55;7.80;99.90
6098;DHT22;3077;50.922;6.584;2023-12-22T07:48:20;7.80;99.90
6098;DHT22;3077;50.922;6.584;2023-12-22T07:50:46;7.80;99.90
6098;DHT22;3077;50.922;6.584;2023-12-22T07:53:12;7.90;99.90
6098;DHT22;3077;50.922;6.584;2023-12-22T07:55:37;7.80;99.90
6098;DHT22;3077;50.922;6.584;2023-12-22T07:58:04;7.70;99.90
6098;DHT22;3077;50.922;6.584;2023-12-22T08:00:30;7.90;99.90
6098;DHT22;3077;50.922;6.584;2023-12-22T08:02:56;7.80;99.90
6098;DHT22;3077;50.922;6.584;2023-12-22T08:05:21;7.90;99.90
6098;DHT22;3077;50.922;6.584;2023-12-22T08:07:47;7.90;99.90
6098;DHT22;3077;50.922;6.584;2023-12-22T08:10:13;8.20;99.90
6098;DHT22;3077;50.922;6.584;2023-12-22T08:12:38;8.00;99.90
6098;DHT22;3077;50.922;6.584;2023-12-22T08:15:04;7.90;99.90
6098;DHT22;3077;50.922;6.584;2023-12-22T08:17:30;8.00;99.90
6098;DHT22;3077;50.922;6.584;2023-12-22T08:19:56;8.30;99.90
6098;DHT22;3077;50.922;6.584;2023-12-22T08:22:22;8.10;99.90
6098;DHT22;3077;50.922;6.584;2023-12-22T08:24:48;8.50;99.90
6098;DHT22;3077;50.922;6.584;2023-12-22T08:27:14;8.10;99.90
6098;DHT22;3077;50.922;6.584;2023-12-22T08:29:40;8.30;99.90
6098;DHT22;3077;50.922;6.584;2023-12-22T08:32:05;8.30;99.90
6098;DHT22;3077;50.922;6.584;2023-12-22T08:34:31;8.30;99.90
6098;DHT22;3077;50.922;6.584;2023-12-22T08:36:57;8.50;99.90
6098;DHT22;3077;50.922;6.584;2023-12-22T08:39:22;8.20;99.90
6098;DHT22;3077;50.922;6.584;2023-12-22T08:41:49;8.30;99.90
6098;DHT22;3077;50.922;6.584;2023-12-22T08:44:15;8.30;99.90
6098;DHT22;3077;50.922;6.584;2023-12-22T08:46:41;8.40;99.90
6098;DHT22;3077;50.922;6.584;2023-12-22T08:49:07;8.40;99.90
6098;DHT22;3077;50.922;6.584;2023-12-22T08:51:33;8.70;99.90
6098;DHT22;3077;50.922;6.584;2023-12-22T08:54:01;8.50;99.90
6098;DHT22;3077;50.922;6.584;2023-12-22T08:56:27;8.60;99.90
6098;DHT22;3077;50.922;6.584;2023-12-22T08:58:54;8.50;99.90
6098;DHT22;3077;50.922;6.584;2023-12-22T09:01:24;8.30;99.90
6098;DHT22;3077;50.922;6.584;2023-12-22T09:03:50;8.50;99.90
6098;DHT22;3077;50.922;6.584;2023-12-22T09:06:20;8.50;99.90
6098;DHT22;3077;50.922;6.584;2023-12-22T09:08:46;8.40;99.90
6098;DHT22;3077;50.922;6.584;2023-12-22T09:11:12;8.70;99.90
6098;DHT22;3077;50.922;6.584;2023-12-22T09:13:40;9.10;99.90
6098;DHT22;3077;50.922;6.584;2023-12-22T09:16:05;8.40;99.90
6098;DHT22;3077;50.922;6.584;2023-12-22T09:18:31;8.70;99.90
6098;DHT22;3077;50.922;6.584;2023-12-22T09:20:57;8.70;99.90
6098;DHT22;3077;50.922;6.584;2023-12-22T09:23:23;9.00;99.90
6098;DHT22;3077;50.922;6.584;2023-12-22T09:25:49;8.40;99.90
6098;DHT22;3077;50.922;6.584;2023-12-22T09:28:15;8.70;99.90
6098;DHT22;3077;50.922;6.584;2023-12-22T09:30:41;9.30;99.90
6098;DHT22;3077;50.922;6.584;2023-12-22T09:33:08;8.80;99.90
6098;DHT22;3077;50.922;6.584;2023-12-22T09:35:34;8.60;99.90
6098;DHT22;3077;50.922;6.584;2023-12-22T09:38:00;8.90;99.90
6098;DHT22;3077;50.922;6.584;2023-12-22T09:40:25;8.70;99.90
6098;DHT22;3077;50.922;6.584;2023-12-22T09:42:54;8.90;99.90
6098;DHT22;3077;50.922;6.584;2023-12-22T09:45:21;9.00;99.90
6098;DHT22;3077;50.922;6.584;2023-12-22T09:47:48;9.00;99.90
6098;DHT22;3077;50.922;6.584;2023-12-22T09:50:14;8.80;99.90
6098;DHT22;3077;50.922;6.584;2023-12-22T09:52:42;8.90;99.90
6098;DHT22;3077;50.922;6.584;2023-12-22T09:55:09;8.80;99.90
6098;DHT22;3077;50.922;6.584;2023-12-22T09:57:37;8.80;99.90
6098;DHT22;3077;50.922;6.584;2023-12-22T10:00:08;9.20;99.90
6098;DHT22;3077;50.922;6.584;2023-12-22T10:02:34;8.80;99.90
6098;DHT22;3077;50.922;6.584;2023-12-22T10:05:01;8.80;99.90
6098;DHT22;3077;50.922;6.584;2023-12-22T10:07:28;8.70;99.90
6098;DHT22;3077;50.922;6.584;2023-12-22T10:09:54;8.60;99.90
6098;DHT22;3077;50.922;6.584;2023-12-22T10:12:21;8.60;99.90
6098;DHT22;3077;50.922;6.584;2023-12-22T10:14:47;8.80;99.90
6098;DHT22;3077;50.922;6.584;2023-12-22T10:17:16;8.60;99.90
6098;DHT22;3077;50.922;6.584;2023-12-22T10:19:43;8.50;99.90
6098;DHT22;3077;50.922;6.584;2023-12-22T10:22:08;8.30;99.90
6098;DHT22;3077;50.922;6.584;2023-12-22T10:24:52;8.60;99.90
6098;DHT22;3077;50.922;6.584;2023-12-22T10:27:18;8.60;99.90
6098;DHT22;3077;50.922;6.584;2023-12-22T10:29:55;8.90;99.90
6098;DHT22;3077;50.922;6.584;2023-12-22T10:32:21;8.60;99.90
6098;DHT22;3077;50.922;6.584;2023-12-22T10:34:48;9.00;99.90
6098;DHT22;3077;50.922;6.584;2023-12-22T10:37:13;8.60;99.90
6098;DHT22;3077;50.922;6.584;2023-12-22T10:39:39;8.90;99.90
6098;DHT22;3077;50.922;6.584;2023-12-22T10:42:05;8.50;99.90
6098;DHT22;3077;50.922;6.584;2023-12-22T10:44:31;8.60;99.90
6098;DHT22;3077;50.922;6.584;2023-12-22T10:46:58;8.50;99.90
6098;DHT22;3077;50.922;6.584;2023-12-22T10:49:24;8.50;99.90
6098;DHT22;3077;50.922;6.584;2023-12-22T10:51:53;8.40;99.90
6098;DHT22;3077;50.922;6.584;2023-12-22T10:54:20;8.70;99.90
6098;DHT22;3077;50.922;6.584;2023-12-22T10:56:46;8.60;99.90
6098;DHT22;3077;50.922;6.584;2023-12-22T10:59:12;9.50;99.90
6098;DHT22;3077;50.922;6.584;2023-12-22T11:01:38;8.90;99.90
6098;DHT22;3077;50.922;6.584;2023-12-22T11:04:07;8.80;99.90
6098;DHT22;3077;50.922;6.584;2023-12-22T11:06:37;9.20;99.90
6098;DHT22;3077;50.922;6.584;2023-12-22T11:09:08;9.70;99.90
6098;DHT22;3077;50.922;6.584;2023-12-22T11:11:38;9.30;99.90
6098;DHT22;3077;50.922;6.584;2023-12-22T11:14:05;9.00;99.90
6098;DHT22;3077;50.922;6.584;2023-12-22T11:16:33;9.20;99.90
6098;DHT22;3077;50.922;6.584;2023-12-22T11:19:00;9.20;99.90
6098;DHT22;3077;50.922;6.584;2023-12-22T11:21:26;9.50;99.90
6098;DHT22;3077;50.922;6.584;2023-12-22T11:23:52;9.30;99.90
6098;DHT22;3077;50.922;6.584;2023-12-22T11:26:19;9.70;99.90
6098;DHT22;3077;50.922;6.584;2023-12-22T11:28:46;9.10;99.90
6098;DHT22;3077;50.922;6.584;2023-12-22T11:31:12;9.20;99.90
6098;DHT22;3077;50.922;6.584;2023-12-22T11:33:42;9.60;99.90
6098;DHT22;3077;50.922;6.584;2023-12-22T11:36:09;9.70;99.90
6098;DHT22;3077;50.922;6.584;2023-12-22T11:38:36;9.70;99.90
6098;DHT22;3077;50.922;6.584;2023-12-22T11:41:02;9.90;99.90
6098;DHT22;3077;50.922;6.584;2023-12-22T11:43:29;9.80;99.90
6098;DHT22;3077;50.922;6.584;2023-12-22T11:45:55;9.90;99.90
6098;DHT22;3077;50.922;6.584;2023-12-22T11:48:22;10.20;99.90
6098;DHT22;3077;50.922;6.584;2023-12-22T11:50:48;9.90;99.90
6098;DHT22;3077;50.922;6.584;2023-12-22T11:53:18;10.00;99.90
6098;DHT22;3077;50.922;6.584;2023-12-22T11:56:04;10.40;99.90
6098;DHT22;3077;50.922;6.584;2023-12-22T12:01:01;10.10;99.90
6098;DHT22;3077;50.922;6.584;2023-12-22T12:03:27;10.10;99.90
6098;DHT22;3077;50.922;6.584;2023-12-22T12:06:15;10.20;99.90
6098;DHT22;3077;50.922;6.584;2023-12-22T12:08:44;10.30;99.90
6098;DHT22;3077;50.922;6.584;2023-12-22T12:11:10;10.20;99.90
6098;DHT22;3077;50.922;6.584;2023-12-22T12:13:39;10.20;99.90
6098;DHT22;3077;50.922;6.584;2023-12-22T12:16:06;10.20;99.90
6098;DHT22;3077;50.922;6.584;2023-12-22T12:18:33;10.20;99.90
6098;DHT22;3077;50.922;6.584;2023-12-22T12:21:00;10.40;99.90
6098;DHT22;3077;50.922;6.584;2023-12-22T12:23:29;10.30;99.90
6098;DHT22;3077;50.922;6.584;2023-12-22T12:25:55;10.30;99.90
6098;DHT22;3077;50.922;6.584;2023-12-22T12:28:31;10.30;99.90
6098;DHT22;3077;50.922;6.584;2023-12-22T12:30:59;10.30;99.90
6098;DHT22;3077;50.922;6.584;2023-12-22T12:33:25;10.30;99.90
6098;DHT22;3077;50.922;6.584;2023-12-22T12:35:53;10.30;99.90
6098;DHT22;3077;50.922;6.584;2023-12-22T12:39:08;10.00;99.90
6098;DHT22;3077;50.922;6.584;2023-12-22T12:41:10;10.10;99.90
6098;DHT22;3077;50.922;6.584;2023-12-22T12:43:42;10.10;99.90
6098;DHT22;3077;50.922;6.584;2023-12-22T12:46:11;10.00;99.90
6098;DHT22;3077;50.922;6.584;2023-12-22T12:48:37;10.00;99.90
6098;DHT22;3077;50.922;6.584;2023-12-22T12:51:06;9.60;99.90
6098;DHT22;3077;50.922;6.584;2023-12-22T12:53:32;9.50;99.90
6098;DHT22;3077;50.922;6.584;2023-12-22T12:55:59;9.50;99.90
6098;DHT22;3077;50.922;6.584;2023-12-22T12:58:32;9.40;99.90
6098;DHT22;3077;50.922;6.584;2023-12-22T13:01:08;9.40;99.90
6098;DHT22;3077;50.922;6.584;2023-12-22T13:03:48;9.30;99.90
6098;DHT22;3077;50.922;6.584;2023-12-22T13:06:16;9.20;99.90
6098;DHT22;3077;50.922;6.584;2023-12-22T13:08:51;9.10;99.90
6098;DHT22;3077;50.922;6.584;2023-12-22T13:11:21;9.40;99.90
6098;DHT22;3077;50.922;6.584;2023-12-22T13:13:47;9.40;99.90
6098;DHT22;3077;50.922;6.584;2023-12-22T13:16:12;9.20;99.90
6098;DHT22;3077;50.922;6.584;2023-12-22T13:18:38;9.70;99.90
6098;DHT22;3077;50.922;6.584;2023-12-22T13:21:04;9.20;99.90
6098;DHT22;3077;50.922;6.584;2023-12-22T13:23:29;9.50;99.90
6098;DHT22;3077;50.922;6.584;2023-12-22T13:25:55;9.60;99.90
6098;DHT22;3077;50.922;6.584;2023-12-22T13:28:27;9.40;99.90
6098;DHT22;3077;50.922;6.584;2023-12-22T13:30:54;9.40;99.90
6098;DHT22;3077;50.922;6.584;2023-12-22T13:33:20;9.70;99.90
6098;DHT22;3077;50.922;6.584;2023-12-22T13:35:46;9.70;99.90
6098;DHT22;3077;50.922;6.584;2023-12-22T13:38:12;9.80;99.90
6098;DHT22;3077;50.922;6.584;2023-12-22T13:40:43;9.80;99.90
6098;DHT22;3077;50.922;6.584;2023-12-22T13:43:09;9.90;99.90
6098;DHT22;3077;50.922;6.584;2023-12-22T13:45:35;9.90;99.90
6098;DHT22;3077;50.922;6.584;2023-12-22T13:48:01;10.20;99.90
6098;DHT22;3077;50.922;6.584;2023-12-22T13:50:26;10.00;99.90
6098;DHT22;3077;50.922;6.584;2023-12-22T13:52:52;10.00;99.90
6098;DHT22;3077;50.922;6.584;2023-12-22T13:55:19;10.20;99.90
6098;DHT22;3077;50.922;6.584;2023-12-22T13:57:45;10.30;99.90
6098;DHT22;3077;50.922;6.584;2023-12-22T14:02:46;10.10;99.90
6098;DHT22;3077;50.922;6.584;2023-12-22T14:05:11;10.10;99.90
6098;DHT22;3077;50.922;6.584;2023-12-22T14:07:37;10.10;99.90
6098;DHT22;3077;50.922;6.584;2023-12-22T14:10:06;10.10;99.90
6098;DHT22;3077;50.922;6.584;2023-12-22T14:12:32;10.00;99.90
6098;DHT22;3077;50.922;6.584;2023-12-22T14:14:57;10.00;99.90
6098;DHT22;3077;50.922;6.584;2023-12-22T14:17:23;10.00;99.90
6098;DHT22;3077;50.922;6.584;2023-12-22T14:19:49;9.90;99.90
6098;DHT22;3077;50.922;6.584;2023-12-22T14:22:15;9.60;99.90
6098;DHT22;3077;50.922;6.584;2023-12-22T14:24:40;9.90;99.90
6098;DHT22;3077;50.922;6.584;2023-12-22T14:27:06;9.70;99.90
6098;DHT22;3077;50.922;6.584;2023-12-22T14:29:32;9.90;99.90
6098;DHT22;3077;50.922;6.584;2023-12-22T14:31:58;9.50;99.90
6098;DHT22;3077;50.922;6.584;2023-12-22T14:34:24;9.90;99.90
6098;DHT22;3077;50.922;6.584;2023-12-22T14:36:50;9.70;99.90
6098;DHT22;3077;50.922;6.584;2023-12-22T14:39:15;9.40;99.90
6098;DHT22;3077;50.922;6.584;2023-12-22T14:41:41;9.70;99.90
6098;DHT22;3077;50.922;6.584;2023-12-22T14:44:09;10.00;99.90
6098;DHT22;3077;50.922;6.584;2023-12-22T14:46:39;9.60;99.90
6098;DHT22;3077;50.922;6.584;2023-12-22T14:49:05;9.60;99.90
6098;DHT22;3077;50.922;6.584;2023-12-22T14:51:38;9.50;99.90
6098;DHT22;3077;50.922;6.584;2023-12-22T14:54:07;9.50;99.90
6098;DHT22;3077;50.922;6.584;2023-12-22T14:56:39;9.50;99.90
6098;DHT22;3077;50.922;6.584;2023-12-22T14:59:11;9.60;99.90
6098;DHT22;3077;50.922;6.584;2023-12-22T15:01:38;9.60;99.90
6098;DHT22;3077;50.922;6.584;2023-12-22T15:04:07;9.50;99.90
6098;DHT22;3077;50.922;6.584;2023-12-22T15:06:36;9.40;99.90
6098;DHT22;3077;50.922;6.584;2023-12-22T15:09:02;9.70;99.90
6098;DHT22;3077;50.922;6.584;2023-12-22T15:11:28;9.50;99.90
6098;DHT22;3077;50.922;6.584;2023-12-22T15:13:54;9.40;99.90
6098;DHT22;3077;50.922;6.584;2023-12-22T15:16:20;9.50;99.90
6098;DHT22;3077;50.922;6.584;2023-12-22T15:18:45;9.40;99.90
6098;DHT22;3077;50.922;6.584;2023-12-22T15:21:22;9.50;99.90
6098;DHT22;3077;50.922;6.584;2023-12-22T15:23:49;9.40;99.90
6098;DHT22;3077;50.922;6.584;2023-12-22T15:26:22;9.40;99.90
6098;DHT22;3077;50.922;6.584;2023-12-22T15:28:47;9.40;99.90
6098;DHT22;3077;50.922;6.584;2023-12-22T15:31:13;9.40;99.90
6098;DHT22;3077;50.922;6.584;2023-12-22T15:33:39;9.30;99.90
6098;DHT22;3077;50.922;6.584;2023-12-22T15:36:04;9.40;99.90
6098;DHT22;3077;50.922;6.584;2023-12-22T15:38:30;9.40;99.90
6098;DHT22;3077;50.922;6.584;2023-12-22T15:40:59;9.10;99.90
6098;DHT22;3077;50.922;6.584;2023-12-22T15:43:25;9.40;99.90
6098;DHT22;3077;50.922;6.584;2023-12-22T15:45:51;9.20;99.90
6098;DHT22;3077;50.922;6.584;2023-12-22T15:48:17;9.30;99.90
6098;DHT22;3077;50.922;6.584;2023-12-22T15:50:43;9.20;99.90
6098;DHT22;3077;50.922;6.584;2023-12-22T15:53:10;9.70;99.90
6098;DHT22;3077;50.922;6.584;2023-12-22T15:55:36;9.30;99.90
6098;DHT22;3077;50.922;6.584;2023-12-22T15:58:01;9.20;99.90
6098;DHT22;3077;50.922;6.584;2023-12-22T16:00:27;9.30;99.90
6098;DHT22;3077;50.922;6.584;2023-12-22T16:02:53;9.30;99.90
6098;DHT22;3077;50.922;6.584;2023-12-22T16:05:19;9.30;99.90
6098;DHT22;3077;50.922;6.584;2023-12-22T16:07:44;9.30;99.90
6098;DHT22;3077;50.922;6.584;2023-12-22T16:10:10;9.10;99.90
6098;DHT22;3077;50.922;6.584;2023-12-22T16:12:36;9.20;99.90
6098;DHT22;3077;50.922;6.584;2023-12-22T16:15:07;9.40;99.90
6098;DHT22;3077;50.922;6.584;2023-12-22T16:17:33;9.30;99.90
6098;DHT22;3077;50.922;6.584;2023-12-22T16:19:59;9.50;99.90
6098;DHT22;3077;50.922;6.584;2023-12-22T16:22:24;9.40;99.90
6098;DHT22;3077;50.922;6.584;2023-12-22T16:24:50;9.20;99.90